createdAt,value
2023-03-10T00:00:34.837Z,94354.00
2023-03-10T00:01:33.837Z,94350.00
2023-03-10T00:02:34.898Z,94350.00
2023-03-10T00:03:34.936Z,94346.00
2023-03-10T00:04:34.165Z,94344.00
2023-03-10T00:05:34.101Z,94340.00
2023-03-10T00:06:35.070Z,94338.00
2023-03-10T00:07:35.146Z,94334.00
2023-03-10T00:08:35.179Z,94334.00
2023-03-10T00:09:35.216Z,94332.00
2023-03-10T00:10:35.258Z,94330.00
2023-03-10T00:11:35.308Z,94332.00
2023-03-10T00:12:35.375Z,94328.00
2023-03-10T00:13:35.432Z,94328.00
2023-03-10T00:14:35.479Z,94324.00
2023-03-10T00:15:35.571Z,94324.00
2023-03-10T00:16:35.569Z,94322.00
2023-03-10T00:17:35.631Z,94322.00
2023-03-10T00:18:35.726Z,94318.00
2023-03-10T00:19:35.734Z,94318.00
2023-03-10T00:20:35.817Z,94318.00
2023-03-10T00:21:35.833Z,94316.00
2023-03-10T00:22:34.882Z,94316.00
2023-03-10T00:23:37.331Z,94312.00
2023-03-10T00:24:35.022Z,94312.00
2023-03-10T00:25:36.081Z,94311.00
2023-03-10T00:26:36.127Z,94311.00
2023-03-10T00:27:35.177Z,94311.00
2023-03-10T00:28:35.241Z,94311.00
2023-03-10T00:29:36.302Z,94311.00
2023-03-10T00:30:36.332Z,94309.00
2023-03-10T00:31:36.477Z,94307.00
2023-03-10T00:32:35.494Z,94307.00
2023-03-10T00:33:35.486Z,94305.00
2023-03-10T00:34:36.560Z,94301.00
2023-03-10T00:35:36.657Z,94297.00
2023-03-10T00:36:36.652Z,94299.00
2023-03-10T00:37:36.703Z,94301.00
2023-03-10T00:38:36.770Z,94299.00
2023-03-10T00:39:36.857Z,94297.00
2023-03-10T00:40:35.878Z,94299.00
2023-03-10T00:41:36.918Z,94301.00
2023-03-10T00:42:36.987Z,94299.00
2023-03-10T00:43:37.031Z,94295.00
2023-03-10T00:44:36.102Z,94293.00
2023-03-10T00:45:36.141Z,94287.00
2023-03-10T00:46:37.238Z,94283.00
2023-03-10T00:47:37.250Z,94281.00
2023-03-10T00:48:36.313Z,94281.00
2023-03-10T00:49:37.373Z,94281.00
2023-03-10T00:50:38.375Z,94281.00
2023-03-10T00:51:36.471Z,94281.00
2023-03-10T00:52:37.508Z,94279.00
2023-03-10T00:53:37.674Z,94273.00
2023-03-10T00:54:37.632Z,94267.00
2023-03-10T00:55:36.710Z,94273.00
2023-03-10T00:56:36.750Z,94271.00
2023-03-10T00:57:37.785Z,94269.00
2023-03-10T00:58:37.837Z,94269.00
2023-03-10T00:59:49.961Z,94269.00
2023-03-10T01:00:37.897Z,94267.00
2023-03-10T01:01:37.989Z,94267.00
2023-03-10T01:02:37.880Z,94265.00
2023-03-10T01:03:36.875Z,94257.00
2023-03-10T01:04:36.895Z,94254.00
2023-03-10T01:05:37.856Z,94244.00
2023-03-10T01:06:37.836Z,94240.00
2023-03-10T01:07:37.845Z,94236.00
2023-03-10T01:08:37.834Z,94236.00
2023-03-10T01:09:38.388Z,94230.00
2023-03-10T01:10:37.816Z,94232.00
2023-03-10T01:11:37.818Z,94228.00
2023-03-10T01:12:37.801Z,94230.00
2023-03-10T01:13:39.942Z,94226.00
2023-03-10T01:14:37.779Z,94228.00
2023-03-10T01:15:37.787Z,94226.00
2023-03-10T01:16:37.767Z,94226.00
2023-03-10T01:17:37.768Z,94222.00
2023-03-10T01:18:37.767Z,94220.00
2023-03-10T01:19:37.754Z,94217.00
2023-03-10T01:20:37.760Z,94213.00
2023-03-10T01:21:37.747Z,94205.00
2023-03-10T01:22:37.771Z,94205.00
2023-03-10T01:23:37.731Z,94199.00
2023-03-10T01:24:37.727Z,94199.00
2023-03-10T01:25:36.720Z,94197.00
2023-03-10T01:26:37.708Z,94199.00
2023-03-10T01:27:37.720Z,94197.00
2023-03-10T01:28:37.710Z,94197.00
2023-03-10T01:29:37.681Z,94195.00
2023-03-10T01:30:37.675Z,94191.00
2023-03-10T01:31:37.721Z,94189.00
2023-03-10T01:32:37.705Z,94187.00
2023-03-10T01:33:37.668Z,94187.00
2023-03-10T01:34:37.650Z,94181.00
2023-03-10T01:35:37.761Z,94177.00
2023-03-10T01:36:36.713Z,94177.00
2023-03-10T01:37:37.766Z,94171.00
2023-03-10T01:38:37.847Z,94171.00
2023-03-10T01:39:36.891Z,94163.00
2023-03-10T01:40:37.946Z,94165.00
2023-03-10T01:41:38.024Z,94162.00
2023-03-10T01:42:38.102Z,94163.00
2023-03-10T01:43:37.169Z,94165.00
2023-03-10T01:44:38.194Z,94165.00
2023-03-10T01:45:38.256Z,94163.00
2023-03-10T01:46:37.418Z,94162.00
2023-03-10T01:47:38.398Z,94156.00
2023-03-10T01:48:38.448Z,94156.00
2023-03-10T01:49:38.511Z,94156.00
2023-03-10T01:50:38.567Z,94154.00
2023-03-10T01:51:37.629Z,94152.00
2023-03-10T01:52:37.676Z,94148.00
2023-03-10T01:53:38.761Z,94148.00
2023-03-10T01:54:38.818Z,94146.00
2023-03-10T01:55:38.871Z,94148.00
2023-03-10T01:56:38.938Z,94148.00
2023-03-10T01:57:38.984Z,94144.00
2023-03-10T01:58:39.079Z,94148.00
2023-03-10T01:59:39.104Z,94144.00
2023-03-10T02:00:39.284Z,94142.00
2023-03-10T02:01:39.315Z,94142.00
2023-03-10T02:02:39.284Z,94136.00
2023-03-10T02:03:38.341Z,94134.00
2023-03-10T02:04:39.392Z,94124.00
2023-03-10T02:05:38.453Z,94117.00
2023-03-10T02:06:39.514Z,94117.00
2023-03-10T02:07:41.357Z,94113.00
2023-03-10T02:08:40.578Z,94107.00
2023-03-10T02:09:38.595Z,94105.00
2023-03-10T02:10:39.565Z,94101.00
2023-03-10T02:11:39.558Z,94101.00
2023-03-10T02:12:38.564Z,94101.00
2023-03-10T02:13:38.550Z,94099.00
2023-03-10T02:14:39.571Z,94101.00
2023-03-10T02:15:39.548Z,94097.00
2023-03-10T02:16:39.684Z,94095.00
2023-03-10T02:17:39.623Z,94089.00
2023-03-10T02:18:38.524Z,94085.00
2023-03-10T02:19:39.638Z,94081.00
2023-03-10T02:20:38.496Z,94081.00
2023-03-10T02:21:39.496Z,94083.00
2023-03-10T02:22:38.489Z,94079.00
2023-03-10T02:23:42.997Z,94077.00
2023-03-10T02:24:39.484Z,94071.00
2023-03-10T02:25:39.508Z,94070.00
2023-03-10T02:26:39.465Z,94070.00
2023-03-10T02:27:38.456Z,94066.00
2023-03-10T02:28:39.435Z,94064.00
2023-03-10T02:29:52.374Z,94058.00
2023-03-10T02:30:39.445Z,94052.00
2023-03-10T02:31:39.603Z,94054.00
2023-03-10T02:32:38.502Z,94054.00
2023-03-10T02:33:39.408Z,94050.00
2023-03-10T02:34:38.393Z,94050.00
2023-03-10T02:35:38.413Z,94052.00
2023-03-10T02:36:39.416Z,94050.00
2023-03-10T02:37:39.404Z,94050.00
2023-03-10T02:38:39.383Z,94050.00
2023-03-10T02:39:39.374Z,94048.00
2023-03-10T02:40:39.363Z,94048.00
2023-03-10T02:41:38.345Z,94046.00
2023-03-10T02:42:39.343Z,94046.00
2023-03-10T02:43:39.341Z,94046.00
2023-03-10T02:44:39.333Z,94044.00
2023-03-10T02:45:39.345Z,94044.00
2023-03-10T02:46:39.365Z,94044.00
2023-03-10T02:47:38.300Z,94042.00
2023-03-10T02:48:39.325Z,94038.00
2023-03-10T02:49:39.311Z,94036.00
2023-03-10T02:50:39.285Z,94038.00
2023-03-10T02:51:39.270Z,94042.00
2023-03-10T02:52:38.315Z,94044.00
2023-03-10T02:53:39.264Z,94044.00
2023-03-10T02:54:39.267Z,94044.00
2023-03-10T02:55:39.272Z,94042.00
2023-03-10T02:56:39.232Z,94040.00
2023-03-10T02:57:39.243Z,94040.00
2023-03-10T02:58:39.244Z,94042.00
2023-03-10T02:59:39.267Z,94046.00
2023-03-10T03:00:38.298Z,94042.00
2023-03-10T03:01:38.319Z,94044.00
2023-03-10T03:02:39.421Z,94036.00
2023-03-10T03:03:39.449Z,94038.00
2023-03-10T03:04:39.397Z,94040.00
2023-03-10T03:05:39.437Z,94042.00
2023-03-10T03:06:39.458Z,94040.00
2023-03-10T03:07:39.494Z,94042.00
2023-03-10T03:08:39.531Z,94042.00
2023-03-10T03:09:39.540Z,94042.00
2023-03-10T03:10:39.581Z,94036.00
2023-03-10T03:11:39.598Z,94032.00
2023-03-10T03:12:39.640Z,94028.00
2023-03-10T03:13:39.678Z,94026.00
2023-03-10T03:14:39.704Z,94026.00
2023-03-10T03:15:39.720Z,94024.00
2023-03-10T03:16:39.861Z,94019.00
2023-03-10T03:17:39.791Z,94019.00
2023-03-10T03:18:39.836Z,94015.00
2023-03-10T03:19:39.838Z,94015.00
2023-03-10T03:20:39.852Z,94017.00
2023-03-10T03:21:38.877Z,94019.00
2023-03-10T03:22:39.897Z,94015.00
2023-03-10T03:23:39.928Z,94009.00
2023-03-10T03:24:39.949Z,94007.00
2023-03-10T03:25:39.963Z,94003.00
2023-03-10T03:26:38.983Z,94007.00
2023-03-10T03:27:40.012Z,94009.00
2023-03-10T03:28:40.040Z,94007.00
2023-03-10T03:29:40.065Z,94001.00
2023-03-10T03:30:40.074Z,93993.00
2023-03-10T03:31:40.164Z,93991.00
2023-03-10T03:32:40.168Z,93989.00
2023-03-10T03:33:40.126Z,93987.00
2023-03-10T03:34:40.181Z,93987.00
2023-03-10T03:35:39.249Z,93985.00
2023-03-10T03:36:40.185Z,93981.00
2023-03-10T03:37:40.199Z,93979.00
2023-03-10T03:38:40.200Z,93979.00
2023-03-10T03:39:39.275Z,93985.00
2023-03-10T03:40:40.279Z,93987.00
2023-03-10T03:41:40.267Z,93983.00
2023-03-10T03:42:40.263Z,93981.00
2023-03-10T03:43:40.290Z,93979.00
2023-03-10T03:44:40.309Z,93979.00
2023-03-10T03:45:40.396Z,93983.00
2023-03-10T03:46:40.347Z,93985.00
2023-03-10T03:47:40.369Z,93983.00
2023-03-10T03:48:40.389Z,93985.00
2023-03-10T03:49:40.411Z,93983.00
2023-03-10T03:50:40.494Z,93979.00
2023-03-10T03:51:40.480Z,93977.00
2023-03-10T03:52:40.497Z,93974.00
2023-03-10T03:53:40.514Z,93966.00
2023-03-10T03:54:39.548Z,93968.00
2023-03-10T03:55:40.558Z,93960.00
2023-03-10T03:56:40.562Z,93960.00
2023-03-10T03:57:40.591Z,93962.00
2023-03-10T03:58:40.618Z,93958.00
2023-03-10T03:59:39.659Z,93960.00
2023-03-10T04:00:40.671Z,93962.00
2023-03-10T04:01:40.667Z,93962.00
2023-03-10T04:02:39.749Z,93966.00
2023-03-10T04:03:40.812Z,93970.00
2023-03-10T04:04:39.775Z,93970.00
2023-03-10T04:05:40.766Z,93972.00
2023-03-10T04:06:40.796Z,93972.00
2023-03-10T04:07:39.809Z,93974.00
2023-03-10T04:08:40.810Z,93972.00
2023-03-10T04:09:40.845Z,93976.00
2023-03-10T04:10:40.902Z,93974.00
2023-03-10T04:11:40.948Z,93970.00
2023-03-10T04:12:40.986Z,93974.00
2023-03-10T04:13:41.038Z,93976.00
2023-03-10T04:14:41.111Z,93977.00
2023-03-10T04:15:40.251Z,93976.00
2023-03-10T04:16:41.222Z,93976.00
2023-03-10T04:17:41.308Z,93974.00
2023-03-10T04:18:41.342Z,93976.00
2023-03-10T04:19:41.402Z,93970.00
2023-03-10T04:20:41.481Z,93968.00
2023-03-10T04:21:41.527Z,93966.00
2023-03-10T04:22:41.632Z,93964.00
2023-03-10T04:23:40.640Z,93962.00
2023-03-10T04:24:40.690Z,93960.00
2023-03-10T04:25:41.883Z,93962.00
2023-03-10T04:26:41.825Z,93962.00
2023-03-10T04:27:41.887Z,93960.00
2023-03-10T04:28:40.927Z,93958.00
2023-03-10T04:29:42.004Z,93964.00
2023-03-10T04:30:42.068Z,93962.00
2023-03-10T04:31:42.103Z,93962.00
2023-03-10T04:32:42.241Z,93960.00
2023-03-10T04:33:42.216Z,93954.00
2023-03-10T04:34:42.257Z,93952.00
2023-03-10T04:35:42.406Z,93946.00
2023-03-10T04:36:42.362Z,93944.00
2023-03-10T04:37:42.394Z,93948.00
2023-03-10T04:38:42.467Z,93950.00
2023-03-10T04:39:42.497Z,93948.00
2023-03-10T04:40:42.552Z,93946.00
2023-03-10T04:41:42.568Z,93948.00
2023-03-10T04:42:42.617Z,93948.00
2023-03-10T04:43:43.213Z,93950.00
2023-03-10T04:44:42.719Z,93946.00
2023-03-10T04:45:42.747Z,93942.00
2023-03-10T04:46:42.846Z,93942.00
2023-03-10T04:47:41.826Z,93946.00
2023-03-10T04:48:42.855Z,93946.00
2023-03-10T04:49:42.874Z,93942.00
2023-03-10T04:50:42.914Z,93944.00
2023-03-10T04:51:41.926Z,93946.00
2023-03-10T04:52:42.958Z,93944.00
2023-03-10T04:53:43.015Z,93948.00
2023-03-10T04:54:43.054Z,93948.00
2023-03-10T04:55:42.046Z,93950.00
2023-03-10T04:56:43.117Z,93952.00
2023-03-10T04:57:43.126Z,93954.00
2023-03-10T04:58:42.123Z,93948.00
2023-03-10T04:59:43.174Z,93946.00
2023-03-10T05:01:00.394Z,93942.00
2023-03-10T05:01:43.255Z,93944.00
2023-03-10T05:02:43.154Z,93944.00
2023-03-10T05:03:42.154Z,93950.00
2023-03-10T05:04:42.274Z,93952.00
2023-03-10T05:05:42.131Z,93954.00
2023-03-10T05:06:43.144Z,93952.00
2023-03-10T05:07:42.126Z,93954.00
2023-03-10T05:08:43.189Z,93954.00
2023-03-10T05:09:43.107Z,93954.00
2023-03-10T05:10:42.123Z,93956.00
2023-03-10T05:11:42.089Z,93960.00
2023-03-10T05:12:42.095Z,93958.00
2023-03-10T05:13:43.069Z,93958.00
2023-03-10T05:14:43.082Z,93956.00
2023-03-10T05:15:43.173Z,93954.00
2023-03-10T05:16:43.063Z,93952.00
2023-03-10T05:17:43.071Z,93958.00
2023-03-10T05:18:43.053Z,93960.00
2023-03-10T05:19:43.053Z,93960.00
2023-03-10T05:20:43.022Z,93960.00
2023-03-10T05:21:43.040Z,93960.00
2023-03-10T05:22:43.015Z,93958.00
2023-03-10T05:23:43.004Z,93958.00
2023-03-10T05:24:43.008Z,93958.00
2023-03-10T05:25:42.983Z,93960.00
2023-03-10T05:26:43.052Z,93966.00
2023-03-10T05:27:42.969Z,93966.00
2023-03-10T05:28:42.976Z,93964.00
2023-03-10T05:29:41.966Z,93968.00
2023-03-10T05:30:41.954Z,93968.00
2023-03-10T05:31:43.071Z,93968.00
2023-03-10T05:32:41.991Z,93966.00
2023-03-10T05:33:42.934Z,93968.00
2023-03-10T05:34:42.916Z,93966.00
2023-03-10T05:35:42.930Z,93964.00
2023-03-10T05:36:42.924Z,93964.00
2023-03-10T05:37:42.904Z,93966.00
2023-03-10T05:38:42.885Z,93964.00
2023-03-10T05:39:42.883Z,93964.00
2023-03-10T05:40:42.889Z,93964.00
2023-03-10T05:41:42.870Z,93962.00
2023-03-10T05:42:41.896Z,93962.00
2023-03-10T05:43:42.866Z,93966.00
2023-03-10T05:44:42.845Z,93966.00
2023-03-10T05:45:42.841Z,93968.00
2023-03-10T05:46:42.943Z,93968.00
2023-03-10T05:47:42.830Z,93970.00
2023-03-10T05:48:42.830Z,93968.00
2023-03-10T05:49:42.824Z,93968.00
2023-03-10T05:50:42.808Z,93968.00
2023-03-10T05:51:41.798Z,93966.00
2023-03-10T05:52:42.817Z,93968.00
2023-03-10T05:53:41.791Z,93966.00
2023-03-10T05:54:42.780Z,93964.00
2023-03-10T05:55:42.833Z,93964.00
2023-03-10T05:56:42.807Z,93962.00
2023-03-10T05:57:42.812Z,93964.00
2023-03-10T05:58:42.855Z,93962.00
2023-03-10T05:59:41.848Z,93962.00
2023-03-10T06:00:42.830Z,93966.00
2023-03-10T06:01:42.855Z,93968.00
2023-03-10T06:02:42.909Z,93968.00
2023-03-10T06:03:43.111Z,93972.00
2023-03-10T06:04:42.872Z,93974.00
2023-03-10T06:05:42.902Z,93976.00
2023-03-10T06:06:42.994Z,93976.00
2023-03-10T06:07:42.906Z,93976.00
2023-03-10T06:08:42.917Z,93979.00
2023-03-10T06:09:41.928Z,93979.00
2023-03-10T06:10:42.932Z,93979.00
2023-03-10T06:11:42.948Z,93979.00
2023-03-10T06:12:42.942Z,93979.00
2023-03-10T06:13:41.948Z,93983.00
2023-03-10T06:14:41.975Z,93985.00
2023-03-10T06:15:42.957Z,93991.00
2023-03-10T06:16:43.123Z,93987.00
2023-03-10T06:17:42.973Z,93985.00
2023-03-10T06:18:42.982Z,93987.00
2023-03-10T06:19:42.978Z,93987.00
2023-03-10T06:20:43.029Z,93991.00
2023-03-10T06:21:43.011Z,93991.00
2023-03-10T06:22:43.006Z,93987.00
2023-03-10T06:23:43.008Z,93985.00
2023-03-10T06:24:43.017Z,93983.00
2023-03-10T06:25:42.015Z,93985.00
2023-03-10T06:26:43.021Z,93981.00
2023-03-10T06:27:43.037Z,93985.00
2023-03-10T06:28:43.102Z,93983.00
2023-03-10T06:29:42.048Z,93983.00
2023-03-10T06:30:43.076Z,93985.00
2023-03-10T06:31:43.129Z,93985.00
2023-03-10T06:32:43.265Z,93991.00
2023-03-10T06:33:43.056Z,93993.00
2023-03-10T06:34:42.073Z,93991.00
2023-03-10T06:35:43.116Z,93993.00
2023-03-10T06:36:43.075Z,93993.00
2023-03-10T06:37:43.092Z,93997.00
2023-03-10T06:38:43.072Z,93995.00
2023-03-10T06:39:42.079Z,93993.00
2023-03-10T06:40:43.055Z,93993.00
2023-03-10T06:41:42.085Z,93991.00
2023-03-10T06:42:43.062Z,93989.00
2023-03-10T06:43:43.049Z,93993.00
2023-03-10T06:44:43.034Z,93989.00
2023-03-10T06:45:43.084Z,93991.00
2023-03-10T06:46:43.063Z,93987.00
2023-03-10T06:47:43.038Z,93985.00
2023-03-10T06:48:43.040Z,93985.00
2023-03-10T06:49:43.058Z,93985.00
2023-03-10T06:50:43.069Z,93983.00
2023-03-10T06:51:43.080Z,93985.00
2023-03-10T06:52:43.119Z,93987.00
2023-03-10T06:53:42.155Z,93979.00
2023-03-10T06:54:43.211Z,93985.00
2023-03-10T06:55:43.271Z,93987.00
2023-03-10T06:56:43.325Z,93983.00
2023-03-10T06:57:43.379Z,93987.00
2023-03-10T06:58:43.425Z,93983.00
2023-03-10T06:59:43.529Z,93985.00
2023-03-10T07:00:42.561Z,93983.00
2023-03-10T07:01:44.032Z,93985.00
2023-03-10T07:02:42.777Z,93985.00
2023-03-10T07:03:43.928Z,93983.00
2023-03-10T07:04:42.823Z,93985.00
2023-03-10T07:05:43.840Z,93985.00
2023-03-10T07:06:42.911Z,93985.00
2023-03-10T07:07:43.974Z,93987.00
2023-03-10T07:08:43.024Z,93985.00
2023-03-10T07:09:43.093Z,93987.00
2023-03-10T07:10:44.156Z,93985.00
2023-03-10T07:11:44.231Z,93985.00
2023-03-10T07:12:44.276Z,93985.00
2023-03-10T07:13:44.335Z,93989.00
2023-03-10T07:13:54.564Z,94031.00
2023-03-10T07:14:44.386Z,93991.00
2023-03-10T07:15:43.527Z,93993.00
2023-03-10T07:16:44.609Z,93991.00
2023-03-10T07:17:43.572Z,93995.00
2023-03-10T07:17:49.841Z,94039.00
2023-03-10T07:18:44.620Z,93995.00
2023-03-10T07:19:43.664Z,93995.00
2023-03-10T07:20:24.691Z,94039.00
2023-03-10T07:20:44.712Z,93995.00
2023-03-10T07:21:44.779Z,93995.00
2023-03-10T07:22:43.830Z,93997.00
2023-03-10T07:22:44.842Z,94043.00
2023-03-10T07:23:44.883Z,93995.00
2023-03-10T07:24:44.936Z,93995.00
2023-03-10T07:25:45.005Z,93993.00
2023-03-10T07:26:45.070Z,93991.00
2023-03-10T07:27:44.128Z,93983.00
2023-03-10T07:28:39.216Z,94027.00
2023-03-10T07:28:44.163Z,93981.00
2023-03-10T07:29:42.621Z,94023.00
2023-03-10T07:29:45.234Z,93977.00
2023-03-10T07:30:45.400Z,93974.00
2023-03-10T07:31:45.379Z,93974.00
2023-03-10T07:32:44.549Z,93974.00
2023-03-10T07:33:45.514Z,93974.00
2023-03-10T07:34:45.541Z,93974.00
2023-03-10T07:35:40.669Z,94017.00
2023-03-10T07:35:44.679Z,93974.00
2023-03-10T07:36:41.655Z,94017.00
2023-03-10T07:36:44.660Z,93974.00
2023-03-10T07:37:41.628Z,94021.00
2023-03-10T07:37:45.732Z,93974.00
2023-03-10T07:38:40.543Z,94017.00
2023-03-10T07:38:45.828Z,93976.00
2023-03-10T07:39:41.597Z,94019.00
2023-03-10T07:39:45.846Z,93974.00
2023-03-10T07:40:41.322Z,94015.00
2023-03-10T07:40:45.943Z,93972.00
2023-03-10T07:41:41.325Z,94015.00
2023-03-10T07:41:45.971Z,93974.00
2023-03-10T07:42:41.803Z,94015.00
2023-03-10T07:42:46.023Z,93976.00
2023-03-10T07:43:41.305Z,94021.00
2023-03-10T07:43:46.087Z,93974.00
2023-03-10T07:44:41.256Z,94021.00
2023-03-10T07:44:46.254Z,93976.00
2023-03-10T07:45:42.127Z,94021.00
2023-03-10T07:45:46.306Z,93976.00
2023-03-10T07:46:40.306Z,94023.00
2023-03-10T07:46:46.323Z,93974.00
2023-03-10T07:47:41.311Z,94019.00
2023-03-10T07:47:46.322Z,93976.00
2023-03-10T07:48:41.243Z,94023.00
2023-03-10T07:48:46.414Z,93977.00
2023-03-10T07:49:41.291Z,94023.00
2023-03-10T07:49:46.455Z,93977.00
2023-03-10T07:50:41.237Z,94021.00
2023-03-10T07:50:46.503Z,93979.00
2023-03-10T07:51:47.073Z,93983.00
2023-03-10T07:52:45.609Z,93985.00
2023-03-10T07:53:46.668Z,93985.00
2023-03-10T07:54:46.871Z,93983.00
2023-03-10T07:55:46.796Z,93985.00
2023-03-10T07:56:48.395Z,93985.00
2023-03-10T07:57:46.834Z,93983.00
2023-03-10T07:58:46.818Z,93981.00
2023-03-10T07:59:46.832Z,93979.00
2023-03-10T08:00:47.127Z,93983.00
2023-03-10T08:01:46.811Z,93983.00
2023-03-10T08:02:45.791Z,93981.00
2023-03-10T08:03:46.846Z,93983.00
2023-03-10T08:04:47.037Z,93983.00
2023-03-10T08:05:46.822Z,93983.00
2023-03-10T08:06:46.770Z,93985.00
2023-03-10T08:07:46.776Z,93983.00
2023-03-10T08:08:46.804Z,93979.00
2023-03-10T08:09:39.085Z,94021.00
2023-03-10T08:09:46.762Z,93977.00
2023-03-10T08:10:41.920Z,94021.00
2023-03-10T08:10:46.753Z,93977.00
2023-03-10T08:11:39.667Z,94021.00
2023-03-10T08:11:46.787Z,93977.00
2023-03-10T08:12:46.749Z,93976.00
2023-03-10T08:13:45.781Z,93976.00
2023-03-10T08:14:46.708Z,93979.00
2023-03-10T08:15:46.737Z,93974.00
2023-03-10T08:16:45.690Z,93974.00
2023-03-10T08:17:46.721Z,93970.00
2023-03-10T08:18:46.685Z,93968.00
2023-03-10T08:19:46.679Z,93966.00
2023-03-10T08:20:45.673Z,93964.00
2023-03-10T08:21:46.750Z,93968.00
2023-03-10T08:22:46.781Z,93970.00
2023-03-10T08:23:46.823Z,93968.00
2023-03-10T08:24:46.883Z,93970.00
2023-03-10T08:25:46.937Z,93968.00
2023-03-10T08:26:46.969Z,93968.00
2023-03-10T08:27:47.038Z,93970.00
2023-03-10T08:28:47.084Z,93970.00
2023-03-10T08:29:47.125Z,93970.00
2023-03-10T08:31:02.962Z,93972.00
2023-03-10T08:31:47.237Z,93974.00
2023-03-10T08:32:46.288Z,93972.00
2023-03-10T08:33:47.152Z,93972.00
2023-03-10T08:34:47.143Z,93972.00
2023-03-10T08:35:47.329Z,93972.00
2023-03-10T08:36:47.137Z,93970.00
2023-03-10T08:37:46.126Z,93970.00
2023-03-10T08:38:47.129Z,93970.00
2023-03-10T08:39:41.353Z,94009.00
2023-03-10T08:39:47.122Z,93968.00
2023-03-10T08:40:41.494Z,94009.00
2023-03-10T08:40:47.121Z,93964.00
2023-03-10T08:41:44.112Z,94009.00
2023-03-10T08:41:47.098Z,93964.00
2023-03-10T08:42:43.129Z,94003.00
2023-03-10T08:42:48.518Z,93962.00
2023-03-10T08:43:42.307Z,94002.00
2023-03-10T08:43:49.029Z,93960.00
2023-03-10T08:44:42.477Z,94002.00
2023-03-10T08:44:47.202Z,93960.00
2023-03-10T08:45:46.194Z,93960.00
2023-03-10T08:46:46.943Z,93964.00
2023-03-10T08:47:47.201Z,93958.00
2023-03-10T08:47:54.830Z,94002.00
2023-03-10T08:48:47.187Z,93958.00
2023-03-10T08:49:48.781Z,93956.00
2023-03-10T08:50:47.171Z,93954.00
2023-03-10T08:51:47.589Z,93954.00
2023-03-10T08:52:47.155Z,93954.00
2023-03-10T08:53:34.799Z,94000.00
2023-03-10T08:53:46.145Z,93956.00
2023-03-10T08:54:35.029Z,94000.00
2023-03-10T08:54:47.148Z,93954.00
2023-03-10T08:55:35.706Z,93998.00
2023-03-10T08:55:47.163Z,93954.00
2023-03-10T08:56:35.430Z,93994.00
2023-03-10T08:56:47.120Z,93954.00
2023-03-10T08:57:47.114Z,93954.00
2023-03-10T08:58:47.102Z,93954.00
2023-03-10T08:59:47.102Z,93952.00
2023-03-10T09:00:47.096Z,93950.00
2023-03-10T09:01:46.131Z,93948.00
2023-03-10T09:02:47.144Z,93948.00
2023-03-10T09:03:47.069Z,93944.00
2023-03-10T09:04:46.064Z,93942.00
2023-03-10T09:05:47.058Z,93944.00
2023-03-10T09:06:47.069Z,93942.00
2023-03-10T09:07:46.035Z,93940.00
2023-03-10T09:08:47.067Z,93938.00
2023-03-10T09:09:47.038Z,93934.00
2023-03-10T09:10:47.033Z,93932.00
2023-03-10T09:11:47.010Z,93934.00
2023-03-10T09:12:46.029Z,93934.00
2023-03-10T09:13:47.022Z,93928.00
2023-03-10T09:14:46.998Z,93928.00
2023-03-10T09:15:46.993Z,93930.00
2023-03-10T09:16:47.090Z,93926.00
2023-03-10T09:17:46.961Z,93930.00
2023-03-10T09:18:45.953Z,93926.00
2023-03-10T09:19:46.945Z,93924.00
2023-03-10T09:20:46.949Z,93934.00
2023-03-10T09:21:46.982Z,93932.00
2023-03-10T09:22:47.088Z,93932.00
2023-03-10T09:23:46.094Z,93932.00
2023-03-10T09:24:47.167Z,93932.00
2023-03-10T09:25:47.223Z,93926.00
2023-03-10T09:26:47.277Z,93924.00
2023-03-10T09:27:47.335Z,93922.00
2023-03-10T09:28:47.385Z,93921.00
2023-03-10T09:29:47.456Z,93924.00
2023-03-10T09:30:46.543Z,93924.00
2023-03-10T09:31:47.649Z,93926.00
2023-03-10T09:32:47.679Z,93928.00
2023-03-10T09:32:50.801Z,93970.00
2023-03-10T09:33:48.383Z,93924.00
2023-03-10T09:33:50.458Z,93966.00
2023-03-10T09:34:47.762Z,93922.00
2023-03-10T09:34:50.622Z,93962.00
2023-03-10T09:36:02.774Z,93922.00
2023-03-10T09:36:05.348Z,93964.00
2023-03-10T09:36:47.765Z,93917.00
2023-03-10T09:36:51.796Z,93960.00
2023-03-10T09:37:47.778Z,93915.00
2023-03-10T09:38:47.793Z,93917.00
2023-03-10T09:39:44.278Z,93954.00
2023-03-10T09:39:47.749Z,93911.00
2023-03-10T09:40:45.211Z,93954.00
2023-03-10T09:40:46.749Z,93913.00
2023-03-10T09:41:45.462Z,93954.00
2023-03-10T09:41:48.098Z,93915.00
2023-03-10T09:42:45.190Z,93956.00
2023-03-10T09:42:47.733Z,93911.00
2023-03-10T09:43:45.174Z,93954.00
2023-03-10T09:43:46.765Z,93909.00
2023-03-10T09:44:45.678Z,93952.00
2023-03-10T09:44:47.691Z,93909.00
2023-03-10T09:45:45.307Z,93948.00
2023-03-10T09:45:47.762Z,93907.00
2023-03-10T09:46:46.144Z,93950.00
2023-03-10T09:46:47.695Z,93905.00
2023-03-10T09:47:44.904Z,93945.00
2023-03-10T09:47:46.708Z,93905.00
2023-03-10T09:48:47.669Z,93903.00
2023-03-10T09:49:47.657Z,93899.00
2023-03-10T09:50:26.978Z,93939.00
2023-03-10T09:50:46.657Z,93895.00
2023-03-10T09:51:47.682Z,93897.00
2023-03-10T09:52:46.652Z,93891.00
2023-03-10T09:53:49.637Z,93893.00
2023-03-10T09:54:47.662Z,93887.00
2023-03-10T09:55:49.014Z,93883.00
2023-03-10T09:56:47.649Z,93889.00
2023-03-10T09:56:47.820Z,93929.00
2023-03-10T09:57:48.106Z,93883.00
2023-03-10T09:57:48.829Z,93929.00
2023-03-10T09:58:46.689Z,93881.00
2023-03-10T09:58:48.780Z,93923.00
2023-03-10T09:59:46.781Z,93875.00
2023-03-10T09:59:50.093Z,93919.00
2023-03-10T10:00:47.791Z,93875.00
2023-03-10T10:01:46.810Z,93860.00
2023-03-10T10:02:46.924Z,93862.00
2023-03-10T10:03:53.172Z,93858.00
2023-03-10T10:04:47.885Z,93854.00
2023-03-10T10:05:47.854Z,93854.00
2023-03-10T10:06:47.859Z,93848.00
2023-03-10T10:07:47.888Z,93846.00
2023-03-10T10:08:28.670Z,93888.00
2023-03-10T10:08:54.917Z,93840.00
2023-03-10T10:09:47.859Z,93838.00
2023-03-10T10:10:47.870Z,93837.00
2023-03-10T10:11:47.819Z,93837.00
2023-03-10T10:12:06.781Z,93882.00
2023-03-10T10:12:47.805Z,93837.00
2023-03-10T10:13:47.799Z,93844.00
2023-03-10T10:14:57.230Z,93846.00
2023-03-10T10:15:47.797Z,93844.00
2023-03-10T10:16:47.815Z,93844.00
2023-03-10T10:17:52.936Z,93844.00
2023-03-10T10:18:47.818Z,93838.00
2023-03-10T10:19:47.774Z,93838.00
2023-03-10T10:20:42.543Z,93880.00
2023-03-10T10:20:47.745Z,93838.00
2023-03-10T10:21:46.738Z,93838.00
2023-03-10T10:22:47.760Z,93831.00
2023-03-10T10:23:47.742Z,93829.00
2023-03-10T10:24:47.724Z,93829.00
2023-03-10T10:25:18.563Z,93874.00
2023-03-10T10:25:50.241Z,93829.00
2023-03-10T10:26:47.747Z,93829.00
2023-03-10T10:27:46.712Z,93831.00
2023-03-10T10:28:49.231Z,93831.00
2023-03-10T10:29:47.732Z,93829.00
2023-03-10T10:30:47.753Z,93825.00
2023-03-10T10:31:05.867Z,93874.00
2023-03-10T10:31:47.692Z,93823.00
2023-03-10T10:32:47.717Z,93819.00
2023-03-10T10:33:46.657Z,93817.00
2023-03-10T10:34:47.644Z,93819.00
2023-03-10T10:35:42.540Z,93862.00
2023-03-10T10:35:47.679Z,93817.00
2023-03-10T10:36:47.654Z,93817.00
2023-03-10T10:37:47.653Z,93817.00
2023-03-10T10:38:46.617Z,93815.00
2023-03-10T10:39:47.635Z,93811.00
2023-03-10T10:40:47.617Z,93807.00
2023-03-10T10:41:47.647Z,93805.00
2023-03-10T10:42:46.612Z,93801.00
2023-03-10T10:43:47.613Z,93797.00